Cherry Point, North Carolina
Current Conditions -  °F | °C
As of 10:54 AM on Saturday 22 Nov 2014 (Local Time) from KNKT Reporting Station
Clear Clear  
Wind Chill: 50°   Ceiling: Unl
Heat Index: 50°   Visibility: 10mi
Dew Point: 35°   Wind: 8mph
Humidity: 57%   Direction: 30°NNE
Pressure: 30.56"   Gusts: NA
Location:  34.9°N, 76.88°W
Report Text: KNKT 221554Z 03007KT 10SM CLR 10/02 A3056 RMK AO2 SLP346 T01000017 $
Loading
Personal Weather Stations






























Interactive Weather Map New forecast layout! Learn more

10-Day Weather Forecast

Advertisements
Track Severe Weather on mobile